createdAt,value
2022-10-16T00:01:14.986Z,77.52
2022-10-16T00:03:43.621Z,77.86
2022-10-16T00:06:11.429Z,77.27
2022-10-16T00:08:39.094Z,77.52
2022-10-16T00:11:19.154Z,78.04
2022-10-16T00:13:49.453Z,78.07
2022-10-16T00:16:16.607Z,78.41
2022-10-16T00:18:43.520Z,78.39
2022-10-16T00:21:14.987Z,78.16
2022-10-16T00:23:42.235Z,78.23
2022-10-16T00:26:12.132Z,77.94
2022-10-16T00:28:39.675Z,78.42
2022-10-16T00:31:08.758Z,78.53
2022-10-16T00:33:36.781Z,78.47
2022-10-16T00:36:05.487Z,78.73
2022-10-16T00:38:32.792Z,78.44
2022-10-16T00:40:59.899Z,78.95
2022-10-16T00:43:54.366Z,79.00
2022-10-16T00:46:24.427Z,78.95
2022-10-16T00:49:02.815Z,79.32
2022-10-16T00:51:36.910Z,79.42
2022-10-16T00:54:08.771Z,79.58
2022-10-16T00:56:35.791Z,79.64
2022-10-16T00:59:12.986Z,79.98
2022-10-16T01:01:39.699Z,80.34
2022-10-16T01:04:06.441Z,80.45
2022-10-16T01:06:42.078Z,80.66
2022-10-16T01:09:36.240Z,80.88
2022-10-16T01:12:09.602Z,80.40
2022-10-16T01:15:11.381Z,80.42
2022-10-16T01:17:43.968Z,80.48
2022-10-16T01:20:27.394Z,80.29
2022-10-16T01:23:15.685Z,80.07
2022-10-16T01:26:03.962Z,79.79
2022-10-16T01:28:46.082Z,80.28
2022-10-16T01:31:19.002Z,80.06
2022-10-16T01:36:52.949Z,80.33
2022-10-16T01:39:25.706Z,80.29
2022-10-16T01:42:17.651Z,80.17
2022-10-16T01:44:47.612Z,80.18
2022-10-16T01:47:16.516Z,80.03
2022-10-16T01:49:46.089Z,80.38
2022-10-16T01:52:20.209Z,80.39
2022-10-16T01:54:49.994Z,80.50
2022-10-16T01:57:18.265Z,80.58
2022-10-16T01:59:53.240Z,80.88
2022-10-16T02:02:23.223Z,80.77
2022-10-16T02:04:56.017Z,80.98
2022-10-16T02:07:23.719Z,81.38
2022-10-16T02:09:50.674Z,81.56
2022-10-16T02:12:28.325Z,80.71
2022-10-16T02:14:55.459Z,80.17
2022-10-16T02:17:22.803Z,80.06
2022-10-16T02:19:52.499Z,79.97
2022-10-16T02:22:34.910Z,79.80
2022-10-16T02:25:14.320Z,79.62
2022-10-16T02:28:21.069Z,80.01
2022-10-16T02:30:58.553Z,79.66
2022-10-16T02:33:37.478Z,79.82
2022-10-16T02:36:04.515Z,79.69
2022-10-16T02:38:32.010Z,79.89
2022-10-16T02:40:59.710Z,80.18
2022-10-16T02:43:30.831Z,79.73
2022-10-16T02:45:57.722Z,79.86
2022-10-16T02:48:24.512Z,80.10
2022-10-16T02:50:52.289Z,80.06
2022-10-16T02:53:19.041Z,79.91
2022-10-16T02:55:45.793Z,80.14
2022-10-16T02:58:12.718Z,80.08
2022-10-16T03:00:39.547Z,79.79
2022-10-16T03:03:06.379Z,79.75
2022-10-16T03:05:33.142Z,79.17
2022-10-16T03:08:01.871Z,79.84
2022-10-16T03:10:28.897Z,79.92
2022-10-16T03:12:55.661Z,79.85
2022-10-16T03:15:22.404Z,79.13
2022-10-16T03:17:49.217Z,79.20
2022-10-16T03:20:16.116Z,79.18
2022-10-16T03:22:42.992Z,79.08
2022-10-16T03:25:09.844Z,79.25
2022-10-16T03:27:36.562Z,79.39
2022-10-16T03:30:04.158Z,79.09
2022-10-16T03:32:32.288Z,79.16
2022-10-16T03:34:59.031Z,79.67
2022-10-16T03:37:26.175Z,79.30
2022-10-16T03:39:53.646Z,79.16
2022-10-16T03:42:20.455Z,79.55
2022-10-16T03:44:47.233Z,79.77
2022-10-16T03:47:14.001Z,79.19
2022-10-16T03:49:40.758Z,79.76
2022-10-16T03:52:07.596Z,79.63
2022-10-16T03:54:34.356Z,79.92
2022-10-16T03:57:01.346Z,79.84
2022-10-16T03:59:28.071Z,79.82
2022-10-16T04:01:54.787Z,80.13
2022-10-16T04:04:21.574Z,80.00
2022-10-16T04:06:48.360Z,79.96
2022-10-16T04:09:15.211Z,79.51
2022-10-16T04:11:42.010Z,79.83
2022-10-16T04:14:08.796Z,79.82
2022-10-16T04:16:35.670Z,80.00
2022-10-16T04:19:02.438Z,79.81
2022-10-16T04:21:29.978Z,79.01
2022-10-16T04:23:56.734Z,79.26
2022-10-16T04:26:23.483Z,79.70
2022-10-16T04:28:50.277Z,79.49
2022-10-16T04:31:17.006Z,79.75
2022-10-16T04:33:44.859Z,79.85
2022-10-16T04:36:11.754Z,79.96
2022-10-16T04:38:38.720Z,79.95
2022-10-16T04:41:05.786Z,80.40
2022-10-16T04:43:32.644Z,80.61
2022-10-16T04:45:59.378Z,80.80
2022-10-16T04:48:26.523Z,81.01
2022-10-16T04:50:55.108Z,80.79
2022-10-16T04:53:22.263Z,80.86
2022-10-16T04:55:49.234Z,80.98
2022-10-16T04:58:16.007Z,80.96
2022-10-16T05:00:42.842Z,80.98
2022-10-16T05:03:10.170Z,81.18
2022-10-16T05:05:37.766Z,81.35
2022-10-16T05:08:05.229Z,81.32
2022-10-16T05:10:32.007Z,81.37
2022-10-16T05:12:59.256Z,81.43
2022-10-16T05:15:26.380Z,81.24
2022-10-16T05:17:55.090Z,81.03
2022-10-16T05:20:21.922Z,80.87
2022-10-16T05:22:48.855Z,80.64
2022-10-16T05:25:15.634Z,80.70
2022-10-16T05:27:42.911Z,80.65
2022-10-16T05:30:12.421Z,80.46
2022-10-16T05:32:39.541Z,80.42
2022-10-16T05:35:10.158Z,79.61
2022-10-16T05:37:39.351Z,79.90
2022-10-16T05:40:06.698Z,79.56
2022-10-16T05:42:33.408Z,79.45
2022-10-16T05:45:00.156Z,79.41
2022-10-16T05:47:27.674Z,78.25
2022-10-16T05:49:54.600Z,77.96
2022-10-16T05:52:21.413Z,78.01
2022-10-16T05:54:48.244Z,78.16
2022-10-16T05:57:14.955Z,78.49
2022-10-16T05:59:41.677Z,77.94
2022-10-16T06:02:13.959Z,77.90
2022-10-16T06:04:40.807Z,77.92
2022-10-16T06:07:07.662Z,78.07
2022-10-16T06:09:34.391Z,78.40
2022-10-16T06:12:01.136Z,78.38
2022-10-16T06:14:27.936Z,78.53
2022-10-16T06:16:54.711Z,78.47
2022-10-16T06:19:21.612Z,78.84
2022-10-16T06:21:49.221Z,78.62
2022-10-16T06:24:15.941Z,78.89
2022-10-16T06:26:42.653Z,78.70
2022-10-16T06:29:09.960Z,78.86
2022-10-16T06:31:36.800Z,79.01
2022-10-16T06:34:05.841Z,78.66
2022-10-16T06:36:32.738Z,78.92
2022-10-16T06:38:59.625Z,79.23
2022-10-16T06:41:26.529Z,78.61
2022-10-16T06:43:53.511Z,78.39
2022-10-16T06:46:23.606Z,78.64
2022-10-16T06:48:50.581Z,78.51
2022-10-16T06:51:22.745Z,78.50
2022-10-16T06:54:02.880Z,78.21
2022-10-16T06:56:32.400Z,78.42
2022-10-16T06:58:59.791Z,78.85
2022-10-16T07:01:27.760Z,78.68
2022-10-16T07:03:54.752Z,78.64
2022-10-16T07:06:24.081Z,78.39
2022-10-16T07:08:51.164Z,78.10
2022-10-16T07:11:23.172Z,78.11
2022-10-16T07:13:54.896Z,78.34
2022-10-16T07:16:26.329Z,78.46
2022-10-16T07:19:00.516Z,78.17
2022-10-16T07:21:31.163Z,78.30
2022-10-16T07:24:00.372Z,78.27
2022-10-16T07:26:28.858Z,78.25
2022-10-16T07:28:56.124Z,78.45
2022-10-16T07:31:23.791Z,78.40
2022-10-16T07:33:51.143Z,78.43
2022-10-16T07:36:19.652Z,78.08
2022-10-16T07:38:47.350Z,78.21
2022-10-16T07:41:16.556Z,77.92
2022-10-16T07:43:50.862Z,78.14
2022-10-16T11:04:30.782Z,70.97
2022-10-16T11:07:32.940Z,70.88
2022-10-16T11:10:17.845Z,70.57
2022-10-16T11:12:50.593Z,70.05
2022-10-16T11:15:22.943Z,70.08
2022-10-16T11:18:12.275Z,70.04
2022-10-16T11:20:45.970Z,70.39
2022-10-16T11:23:34.906Z,70.54
2022-10-16T11:26:07.954Z,70.02
2022-10-16T11:28:41.323Z,69.92
2022-10-16T11:31:33.946Z,70.54
2022-10-16T11:34:08.261Z,70.29
2022-10-16T11:36:43.894Z,70.39
2022-10-16T11:39:23.471Z,70.27
2022-10-16T11:42:04.329Z,70.39
2022-10-16T11:45:06.270Z,70.83
2022-10-16T11:47:58.099Z,71.32
2022-10-16T11:50:35.885Z,70.59
2022-10-16T11:53:15.927Z,69.45
2022-10-16T11:55:46.969Z,68.94
2022-10-16T11:58:21.146Z,67.95
2022-10-16T12:00:57.800Z,68.69
2022-10-16T12:03:30.787Z,67.11
2022-10-16T12:06:20.452Z,66.85
2022-10-16T12:08:48.627Z,66.87
2022-10-16T12:11:27.444Z,67.17
2022-10-16T12:14:07.507Z,67.54
2022-10-16T12:16:34.810Z,67.28
2022-10-16T12:19:16.587Z,67.32
2022-10-16T12:22:04.704Z,66.50
2022-10-16T12:24:36.595Z,66.60
2022-10-16T12:27:05.320Z,66.42
2022-10-16T12:29:44.039Z,67.08
2022-10-16T12:32:46.291Z,66.96
2022-10-16T12:35:27.891Z,66.31
2022-10-16T12:37:55.617Z,66.14
2022-10-16T12:40:35.423Z,66.32
2022-10-16T12:43:24.938Z,66.00
2022-10-16T12:46:11.063Z,66.38
2022-10-16T12:48:49.114Z,65.65
2022-10-16T12:51:24.322Z,65.42
2022-10-16T12:54:03.720Z,65.40
2022-10-16T12:56:37.717Z,66.14
2022-10-16T12:59:13.705Z,66.32
2022-10-16T13:02:15.448Z,67.05
2022-10-16T13:05:20.293Z,67.38
2022-10-16T13:08:31.216Z,67.60
2022-10-16T13:11:21.753Z,68.14
2022-10-16T13:14:18.452Z,68.84
2022-10-16T13:17:09.618Z,68.19
2022-10-16T13:19:55.237Z,68.33
2022-10-16T13:22:43.248Z,68.54
2022-10-16T13:25:22.079Z,68.42
2022-10-16T13:27:57.673Z,68.74
2022-10-16T13:30:30.998Z,69.05
2022-10-16T13:33:14.371Z,69.31
2022-10-16T13:35:50.894Z,69.05
2022-10-16T13:38:22.657Z,69.02
2022-10-16T13:41:19.435Z,68.79
2022-10-16T13:43:51.858Z,68.45
2022-10-16T13:46:21.369Z,68.20
2022-10-16T13:49:06.270Z,68.09
2022-10-16T13:51:34.035Z,67.84
2022-10-16T13:54:00.982Z,67.82
2022-10-16T13:56:30.519Z,67.65
2022-10-16T13:59:02.746Z,68.13
2022-10-16T14:01:33.569Z,68.14
2022-10-16T14:04:07.269Z,68.97
2022-10-16T14:06:35.215Z,68.77
2022-10-16T14:09:07.758Z,69.10
2022-10-16T14:11:38.400Z,69.17
2022-10-16T14:14:05.241Z,69.33
2022-10-16T14:16:34.027Z,69.68
2022-10-16T14:19:06.500Z,69.17
2022-10-16T14:21:34.680Z,69.26
2022-10-16T14:24:13.092Z,69.49
2022-10-16T14:26:50.457Z,69.59
2022-10-16T14:29:21.104Z,70.12
2022-10-16T14:32:00.853Z,70.26
2022-10-16T14:34:37.307Z,70.69
2022-10-16T14:37:27.506Z,70.30
2022-10-16T14:39:58.085Z,70.46
2022-10-16T14:42:36.149Z,70.12
2022-10-16T14:45:11.406Z,70.48
2022-10-16T14:47:50.165Z,70.65
2022-10-16T14:50:18.856Z,70.89
2022-10-16T14:52:46.147Z,71.37
2022-10-16T14:55:14.149Z,71.75
2022-10-16T14:57:41.673Z,71.55
2022-10-16T15:00:17.365Z,71.90
2022-10-16T15:02:45.126Z,71.95
2022-10-16T15:05:21.425Z,72.44
2022-10-16T15:07:48.381Z,72.10
2022-10-16T15:10:15.422Z,72.23
2022-10-16T15:12:43.033Z,72.49
2022-10-16T15:15:25.085Z,72.84
2022-10-16T15:17:54.832Z,73.37
2022-10-16T15:20:21.622Z,73.18
2022-10-16T15:22:48.611Z,73.20
2022-10-16T15:25:21.592Z,73.33
2022-10-16T15:27:48.498Z,73.36
2022-10-16T15:30:15.326Z,73.05
2022-10-16T15:32:42.164Z,73.14
2022-10-16T15:35:10.346Z,73.49
2022-10-16T15:37:37.191Z,73.79
2022-10-16T15:40:04.402Z,74.11
2022-10-16T15:42:31.444Z,74.61
2022-10-16T15:44:58.489Z,74.52
2022-10-16T15:47:25.615Z,74.79
2022-10-16T15:49:52.730Z,74.94
2022-10-16T15:52:19.753Z,80.67
2022-10-16T15:54:51.790Z,83.13
2022-10-16T15:57:21.737Z,83.43
2022-10-16T15:59:48.889Z,84.86
2022-10-16T16:02:15.847Z,85.54
2022-10-16T16:04:44.261Z,84.05
2022-10-16T16:07:12.150Z,81.92
2022-10-16T16:09:39.648Z,80.59
2022-10-16T16:12:07.046Z,80.93
2022-10-16T16:14:34.396Z,82.01
2022-10-16T16:17:01.501Z,81.71
2022-10-16T16:19:28.919Z,82.62
2022-10-16T16:21:58.425Z,81.71
2022-10-16T16:24:25.699Z,82.30
2022-10-16T16:26:52.863Z,81.91
2022-10-16T16:29:19.871Z,82.39
2022-10-16T16:31:58.455Z,82.13
2022-10-16T16:34:27.018Z,81.28
2022-10-16T16:36:54.326Z,81.36
2022-10-16T16:39:21.335Z,82.22
2022-10-16T16:41:58.437Z,81.92
2022-10-16T16:44:26.104Z,81.28
2022-10-16T16:46:52.996Z,81.10
2022-10-16T16:49:20.366Z,81.21
2022-10-16T16:51:57.746Z,82.08
2022-10-16T16:54:25.073Z,81.58
2022-10-16T16:56:52.382Z,81.75
2022-10-16T16:59:21.460Z,81.43
2022-10-16T17:01:58.178Z,81.39
2022-10-16T17:04:25.339Z,82.07
2022-10-16T17:06:55.632Z,81.23
2022-10-16T17:09:23.694Z,81.91
2022-10-16T17:11:52.303Z,81.76
2022-10-16T17:14:19.303Z,82.84
2022-10-16T17:16:46.184Z,82.86
2022-10-16T17:19:16.299Z,82.35
2022-10-16T17:21:49.833Z,83.37
2022-10-16T17:24:16.771Z,83.19
2022-10-16T17:26:49.299Z,83.24
2022-10-16T17:29:18.575Z,83.83
2022-10-16T17:31:51.567Z,84.25
2022-10-16T17:34:18.782Z,84.88
2022-10-16T17:36:47.226Z,85.37
2022-10-16T17:39:19.150Z,85.78
2022-10-16T17:41:51.225Z,86.35
2022-10-16T17:44:21.577Z,86.58
2022-10-16T17:46:53.802Z,87.07
2022-10-16T17:49:22.170Z,87.34
2022-10-16T17:51:54.636Z,87.43
2022-10-16T17:54:21.535Z,88.05
2022-10-16T17:56:49.027Z,88.28
2022-10-16T17:59:16.187Z,88.37
2022-10-16T18:01:50.396Z,88.66
2022-10-16T18:04:18.061Z,89.09
2022-10-16T18:06:46.037Z,89.30
2022-10-16T18:09:18.250Z,89.24
2022-10-16T18:12:00.045Z,89.55
2022-10-16T18:14:31.505Z,89.59
2022-10-16T18:16:59.304Z,89.53
2022-10-16T18:19:32.098Z,89.96
2022-10-16T18:21:59.274Z,89.73
2022-10-16T18:24:26.938Z,90.03
2022-10-16T18:26:56.819Z,89.80
2022-10-16T18:29:25.934Z,90.51
2022-10-16T18:31:57.327Z,90.71
2022-10-16T18:34:26.990Z,90.70
2022-10-16T18:36:55.311Z,90.80
2022-10-16T18:39:23.960Z,91.43
2022-10-16T18:41:59.814Z,91.79
2022-10-16T18:44:27.818Z,91.93
2022-10-16T18:46:57.274Z,92.37
2022-10-16T18:49:25.152Z,93.17
2022-10-16T18:51:56.814Z,93.42
2022-10-16T18:54:24.807Z,93.29
2022-10-16T18:56:52.751Z,93.34
2022-10-16T18:59:20.713Z,93.64
2022-10-16T19:01:56.114Z,94.09
2022-10-16T19:04:24.108Z,94.33
2022-10-16T19:06:54.147Z,94.55
2022-10-16T19:09:23.527Z,94.72
2022-10-16T19:11:53.859Z,95.06
2022-10-16T19:14:21.410Z,95.36
2022-10-16T19:16:48.985Z,95.05
2022-10-16T19:19:21.174Z,94.93
2022-10-16T19:22:11.706Z,95.25
2022-10-16T19:24:39.252Z,95.94
2022-10-16T19:27:06.563Z,95.48
2022-10-16T19:29:33.531Z,95.56
2022-10-16T19:32:05.111Z,95.56
2022-10-16T19:34:34.627Z,95.96
2022-10-16T19:37:01.398Z,96.22
2022-10-16T19:39:28.186Z,96.15
2022-10-16T19:42:00.896Z,95.99
2022-10-16T19:44:27.643Z,95.92
2022-10-16T19:46:54.400Z,96.19
2022-10-16T19:49:22.187Z,96.54
2022-10-16T19:51:55.370Z,96.40
2022-10-16T19:54:22.303Z,96.41
2022-10-16T19:56:49.257Z,96.32
2022-10-16T19:59:20.451Z,96.44
2022-10-16T20:01:58.817Z,96.53
2022-10-16T20:04:25.614Z,96.67
2022-10-16T20:06:52.569Z,96.36
2022-10-16T20:09:19.434Z,96.48
2022-10-16T20:11:53.264Z,96.42
2022-10-16T20:14:20.234Z,96.60
2022-10-16T20:16:46.968Z,97.04
2022-10-16T20:19:14.304Z,96.60
2022-10-16T20:21:57.963Z,96.63
2022-10-16T20:24:24.764Z,96.85
2022-10-16T20:26:51.790Z,97.23
2022-10-16T20:29:18.806Z,96.87
2022-10-16T20:31:52.115Z,96.72
2022-10-16T20:34:18.865Z,96.70
2022-10-16T20:36:46.762Z,96.70
2022-10-16T20:39:16.388Z,96.96
2022-10-16T20:41:57.187Z,96.92
2022-10-16T20:44:24.031Z,96.85
2022-10-16T20:46:50.773Z,97.05
2022-10-16T20:49:35.957Z,97.40
2022-10-16T20:52:04.489Z,97.17
2022-10-16T20:54:31.231Z,97.00
2022-10-16T20:56:58.162Z,97.14
2022-10-16T20:59:25.039Z,97.42
2022-10-16T21:01:54.768Z,97.27
2022-10-16T21:04:21.631Z,97.37
2022-10-16T21:06:48.483Z,97.70
2022-10-16T21:09:15.610Z,98.20
2022-10-16T21:11:46.515Z,98.68
2022-10-16T21:14:13.375Z,98.96
2022-10-16T21:16:40.114Z,99.53
2022-10-16T21:19:07.388Z,100.00
2022-10-16T21:21:47.577Z,100.00
2022-10-16T21:24:16.651Z,100.00
2022-10-16T21:26:45.478Z,100.00
2022-10-16T21:29:12.400Z,100.00
2022-10-16T21:31:39.667Z,100.00
2022-10-16T21:34:06.689Z,100.00
2022-10-16T21:36:37.109Z,100.00
2022-10-16T21:39:16.409Z,100.00
2022-10-16T21:41:48.103Z,100.00
2022-10-16T21:44:15.806Z,100.00
2022-10-16T21:46:46.377Z,100.00
2022-10-16T21:49:18.128Z,100.00
2022-10-16T21:51:51.475Z,100.00
2022-10-16T21:54:20.706Z,100.00
2022-10-16T21:56:47.479Z,100.00
2022-10-16T21:59:15.332Z,100.00
2022-10-16T22:01:53.276Z,100.00
2022-10-16T22:04:20.330Z,100.00
2022-10-16T22:06:47.438Z,100.00
2022-10-16T22:09:15.273Z,100.00
2022-10-16T22:11:46.400Z,100.00
2022-10-16T22:14:16.232Z,100.00
2022-10-16T22:16:43.958Z,100.00
2022-10-16T22:19:12.478Z,100.00
2022-10-16T22:21:49.662Z,100.00
2022-10-16T22:24:16.694Z,100.00
2022-10-16T22:26:44.237Z,100.00
2022-10-16T22:29:15.358Z,100.00
2022-10-16T22:31:52.749Z,100.00
2022-10-16T22:34:20.329Z,100.00
2022-10-16T22:36:49.400Z,100.00
2022-10-16T22:39:17.361Z,100.00
2022-10-16T22:41:46.535Z,100.00
2022-10-16T22:44:14.037Z,100.00
2022-10-16T22:46:40.865Z,100.00
2022-10-16T22:49:07.739Z,100.00
2022-10-16T22:51:34.597Z,100.00
2022-10-16T22:54:01.399Z,100.00
2022-10-16T22:56:28.278Z,100.00
2022-10-16T22:58:55.295Z,100.00
2022-10-16T23:01:27.274Z,100.00
2022-10-16T23:03:54.052Z,100.00
2022-10-16T23:06:20.973Z,100.00
2022-10-16T23:08:52.466Z,100.00
2022-10-16T23:11:19.448Z,100.00
2022-10-16T23:13:46.624Z,100.00
2022-10-16T23:16:16.578Z,100.00
2022-10-16T23:18:45.023Z,100.00
2022-10-16T23:21:20.019Z,100.00
2022-10-16T23:23:47.426Z,100.00
2022-10-16T23:26:18.156Z,100.00
2022-10-16T23:28:45.162Z,100.00
2022-10-16T23:31:14.033Z,100.00
2022-10-16T23:33:41.377Z,100.00
2022-10-16T23:36:11.086Z,100.00
2022-10-16T23:38:38.571Z,100.00
2022-10-16T23:41:05.588Z,100.00
2022-10-16T23:43:32.472Z,100.00
2022-10-16T23:45:59.434Z,100.00
2022-10-16T23:48:26.240Z,100.00
2022-10-16T23:50:53.178Z,100.00
2022-10-16T23:53:20.091Z,100.00
2022-10-16T23:55:46.865Z,100.00
2022-10-16T23:58:13.899Z,100.00
